EJU63XT LIMC-LSGG
Flight info
| Callsign | EJU63XT |
|---|---|
| Flight time | 0h 30m |
| Altitude | 20000 |
| Route | AOSTA L615 BANKO |
| Aircraft | A20N/M-SDE2E3FGHIRWXY/LB1 |
Departure
| Time | 2026-05-06 15:27 |
|---|---|
| Airport | Milan Malpensa International Airport (LIMC) |
Arrival
| Time | 2026-05-06 15:58 |
|---|---|
| Airport | Geneva International Airport (LSGG) |
| Time | Latitude | Longitude | Altitude | Speed | Heading |
|---|---|---|---|---|---|
| 2026-05-06 15:03 | 45.64528 | 8.72273 | 772 ft | 0 kts | 351° |
| 2026-05-06 15:13 | 45.64512 | 8.72276 | 771 ft | 2 kts | 351° |
| 2026-05-06 15:13 | 45.64496 | 8.72280 | 771 ft | 2 kts | 351° |
| 2026-05-06 15:13 | 45.64479 | 8.72284 | 771 ft | 2 kts | 351° |
| 2026-05-06 15:13 | 45.64463 | 8.72287 | 770 ft | 2 kts | 352° |
| 2026-05-06 15:14 | 45.64446 | 8.72289 | 770 ft | 2 kts | 13° |
| 2026-05-06 15:14 | 45.64433 | 8.72276 | 770 ft | 2 kts | 58° |
| 2026-05-06 15:14 | 45.64427 | 8.72257 | 770 ft | 1 kts | 76° |
| 2026-05-06 15:14 | 45.64426 | 8.72254 | 770 ft | 0 kts | 77° |
| 2026-05-06 15:17 | 45.64428 | 8.72263 | 770 ft | 2 kts | 77° |
| 2026-05-06 15:17 | 45.64434 | 8.72304 | 770 ft | 6 kts | 77° |
| 2026-05-06 15:17 | 45.64439 | 8.72399 | 768 ft | 13 kts | 100° |
| 2026-05-06 15:18 | 45.64433 | 8.72429 | 767 ft | 0 kts | 112° |
| 2026-05-06 15:18 | 45.64427 | 8.72443 | 767 ft | 7 kts | 123° |
| 2026-05-06 15:18 | 45.64385 | 8.72475 | 766 ft | 8 kts | 174° |
| 2026-05-06 15:18 | 45.64320 | 8.72459 | 765 ft | 10 kts | 198° |
| 2026-05-06 15:19 | 45.64316 | 8.72458 | 765 ft | 1 kts | 198° |
| 2026-05-06 15:19 | 45.64295 | 8.72448 | 765 ft | 7 kts | 198° |
| 2026-05-06 15:19 | 45.64259 | 8.72441 | 764 ft | 4 kts | 164° |
| 2026-05-06 15:19 | 45.64162 | 8.72495 | 762 ft | 16 kts | 168° |
| 2026-05-06 15:20 | 45.64043 | 8.72537 | 759 ft | 19 kts | 165° |
| 2026-05-06 15:20 | 45.63901 | 8.72576 | 756 ft | 22 kts | 170° |
| 2026-05-06 15:20 | 45.63750 | 8.72619 | 752 ft | 23 kts | 169° |
| 2026-05-06 15:20 | 45.63599 | 8.72661 | 747 ft | 17 kts | 169° |
| 2026-05-06 15:21 | 45.63515 | 8.72684 | 746 ft | 19 kts | 168° |
| 2026-05-06 15:21 | 45.63375 | 8.72724 | 743 ft | 22 kts | 169° |
| 2026-05-06 15:21 | 45.63214 | 8.72767 | 742 ft | 25 kts | 168° |
| 2026-05-06 15:21 | 45.63028 | 8.72819 | 738 ft | 29 kts | 168° |
| 2026-05-06 15:22 | 45.62839 | 8.72871 | 733 ft | 29 kts | 169° |
| 2026-05-06 15:22 | 45.62643 | 8.72927 | 731 ft | 28 kts | 169° |
| 2026-05-06 15:22 | 45.62441 | 8.72982 | 727 ft | 31 kts | 169° |
| 2026-05-06 15:22 | 45.62234 | 8.73039 | 725 ft | 29 kts | 168° |
| 2026-05-06 15:23 | 45.62031 | 8.73095 | 720 ft | 31 kts | 169° |
| 2026-05-06 15:23 | 45.61841 | 8.73148 | 715 ft | 14 kts | 169° |
| 2026-05-06 15:23 | 45.61747 | 8.73201 | 714 ft | 14 kts | 129° |
| 2026-05-06 15:23 | 45.61686 | 8.73329 | 711 ft | 18 kts | 124° |
| 2026-05-06 15:24 | 45.61606 | 8.73503 | 697 ft | 23 kts | 121° |
| 2026-05-06 15:24 | 45.61611 | 8.73709 | 701 ft | 19 kts | 49° |
| 2026-05-06 15:24 | 45.61673 | 8.73725 | 697 ft | 0 kts | 349° |
| 2026-05-06 15:27 | 45.61673 | 8.73724 | 697 ft | 2 kts | 349° |
| 2026-05-06 15:27 | 45.61941 | 8.73650 | 713 ft | 84 kts | 349° |
| 2026-05-06 15:27 | 45.62798 | 8.73414 | 742 ft | 161 kts | 348° |
| 2026-05-06 15:27 | 45.63900 | 8.73102 | 1596 ft | 161 kts | 349° |
| 2026-05-06 15:28 | 45.65046 | 8.72927 | 2549 ft | 173 kts | 358° |
| 2026-05-06 15:28 | 45.66368 | 8.72865 | 3039 ft | 207 kts | 359° |
| 2026-05-06 15:28 | 45.67896 | 8.72794 | 3710 ft | 231 kts | 358° |
| 2026-05-06 15:28 | 45.69563 | 8.72691 | 4415 ft | 243 kts | 357° |
| 2026-05-06 15:29 | 45.71247 | 8.72423 | 4939 ft | 245 kts | 340° |
| 2026-05-06 15:29 | 45.72549 | 8.70976 | 5939 ft | 244 kts | 299° |
| 2026-05-06 15:29 | 45.72924 | 8.68666 | 7375 ft | 235 kts | 262° |
| 2026-05-06 15:29 | 45.72585 | 8.66396 | 8825 ft | 232 kts | 253° |
| 2026-05-06 15:30 | 45.72187 | 8.64178 | 10124 ft | 235 kts | 255° |
| 2026-05-06 15:30 | 45.71853 | 8.61869 | 11297 ft | 240 kts | 256° |
| 2026-05-06 15:30 | 45.71288 | 8.59583 | 12477 ft | 245 kts | 240° |
| 2026-05-06 15:30 | 45.70371 | 8.57380 | 13135 ft | 274 kts | 236° |
| 2026-05-06 15:31 | 45.69279 | 8.54986 | 13642 ft | 305 kts | 235° |
| 2026-05-06 15:31 | 45.68087 | 8.52369 | 14449 ft | 321 kts | 236° |
| 2026-05-06 15:31 | 45.66860 | 8.49656 | 15528 ft | 327 kts | 236° |
| 2026-05-06 15:32 | 45.64373 | 8.44112 | 17788 ft | 336 kts | 236° |
| 2026-05-06 15:32 | 45.63104 | 8.41271 | 18793 ft | 340 kts | 234° |
| 2026-05-06 15:32 | 45.61662 | 8.38613 | 19824 ft | 339 kts | 229° |
| 2026-05-06 15:32 | 45.60152 | 8.36043 | 20872 ft | 334 kts | 229° |
| 2026-05-06 15:33 | 45.58658 | 8.33530 | 21537 ft | 330 kts | 228° |
| 2026-05-06 15:33 | 45.57228 | 8.30987 | 21801 ft | 330 kts | 238° |
| 2026-05-06 15:33 | 45.56549 | 8.27835 | 21845 ft | 339 kts | 261° |
| 2026-05-06 15:33 | 45.56863 | 8.24457 | 21844 ft | 355 kts | 283° |
| 2026-05-06 15:34 | 45.58091 | 8.21325 | 21850 ft | 366 kts | 297° |
| 2026-05-06 15:34 | 45.59479 | 8.18287 | 21851 ft | 365 kts | 294° |
| 2026-05-06 15:34 | 45.60688 | 8.15120 | 21853 ft | 361 kts | 289° |
| 2026-05-06 15:34 | 45.61723 | 8.11867 | 21857 ft | 359 kts | 286° |
| 2026-05-06 15:35 | 45.62647 | 8.08559 | 21855 ft | 358 kts | 284° |
| 2026-05-06 15:35 | 45.63505 | 8.05223 | 21860 ft | 357 kts | 283° |
| 2026-05-06 15:35 | 45.64323 | 8.01875 | 21855 ft | 357 kts | 283° |
| 2026-05-06 15:35 | 45.65120 | 7.98519 | 21855 ft | 357 kts | 283° |
| 2026-05-06 15:36 | 45.65908 | 7.95150 | 21857 ft | 357 kts | 283° |
| 2026-05-06 15:36 | 45.66689 | 7.91771 | 21868 ft | 358 kts | 282° |
| 2026-05-06 15:36 | 45.67469 | 7.88392 | 21861 ft | 357 kts | 282° |
| 2026-05-06 15:36 | 45.68241 | 7.85025 | 21861 ft | 357 kts | 282° |
| 2026-05-06 15:37 | 45.69014 | 7.81649 | 21865 ft | 357 kts | 282° |
| 2026-05-06 15:37 | 45.69787 | 7.78266 | 21858 ft | 357 kts | 282° |
| 2026-05-06 15:37 | 45.70560 | 7.74874 | 21872 ft | 359 kts | 282° |
| 2026-05-06 15:37 | 45.71331 | 7.71484 | 21865 ft | 359 kts | 282° |
| 2026-05-06 15:38 | 45.72102 | 7.68087 | 21867 ft | 359 kts | 282° |
| 2026-05-06 15:38 | 45.72877 | 7.64674 | 21850 ft | 360 kts | 282° |
| 2026-05-06 15:38 | 45.73650 | 7.61259 | 21863 ft | 360 kts | 282° |
| 2026-05-06 15:38 | 45.74420 | 7.57846 | 21870 ft | 360 kts | 282° |
| 2026-05-06 15:39 | 45.75179 | 7.54479 | 21865 ft | 360 kts | 283° |
| 2026-05-06 15:39 | 45.75959 | 7.51016 | 21859 ft | 361 kts | 283° |
| 2026-05-06 15:39 | 45.76720 | 7.47631 | 21856 ft | 362 kts | 283° |
| 2026-05-06 15:39 | 45.77492 | 7.44195 | 21863 ft | 362 kts | 283° |
| 2026-05-06 15:40 | 45.78263 | 7.40753 | 21867 ft | 364 kts | 283° |
| 2026-05-06 15:40 | 45.79037 | 7.37296 | 21861 ft | 363 kts | 283° |
| 2026-05-06 15:40 | 45.79765 | 7.33845 | 21858 ft | 361 kts | 276° |
| 2026-05-06 15:40 | 45.80085 | 7.30297 | 21850 ft | 359 kts | 272° |
| 2026-05-06 15:41 | 45.80360 | 7.26744 | 21853 ft | 359 kts | 271° |
| 2026-05-06 15:41 | 45.80622 | 7.23174 | 21862 ft | 360 kts | 272° |
| 2026-05-06 15:41 | 45.80890 | 7.19599 | 21869 ft | 361 kts | 272° |
| 2026-05-06 15:41 | 45.81167 | 7.16033 | 21868 ft | 361 kts | 272° |
| 2026-05-06 15:42 | 45.81450 | 7.12455 | 21882 ft | 361 kts | 272° |
| 2026-05-06 15:42 | 45.81734 | 7.08876 | 21889 ft | 362 kts | 272° |
| 2026-05-06 15:42 | 45.81953 | 7.05295 | 21887 ft | 361 kts | 271° |
| 2026-05-06 15:42 | 45.82619 | 7.01804 | 21893 ft | 371 kts | 293° |
| 2026-05-06 15:43 | 45.84145 | 6.98788 | 21916 ft | 377 kts | 307° |
| 2026-05-06 15:43 | 45.85859 | 6.95989 | 21910 ft | 377 kts | 307° |
| 2026-05-06 15:43 | 45.87550 | 6.93056 | 21943 ft | 377 kts | 304° |
| 2026-05-06 15:43 | 45.89127 | 6.90110 | 21869 ft | 376 kts | 303° |
| 2026-05-06 15:44 | 45.90665 | 6.87083 | 21535 ft | 375 kts | 302° |
| 2026-05-06 15:44 | 45.92165 | 6.84039 | 21103 ft | 373 kts | 301° |
| 2026-05-06 15:44 | 45.93643 | 6.80986 | 20545 ft | 370 kts | 301° |
| 2026-05-06 15:44 | 45.95093 | 6.77959 | 19965 ft | 366 kts | 301° |
| 2026-05-06 15:45 | 45.96515 | 6.74941 | 19398 ft | 363 kts | 301° |
| 2026-05-06 15:45 | 45.97913 | 6.71943 | 18834 ft | 358 kts | 300° |
| 2026-05-06 15:45 | 45.99286 | 6.68986 | 18299 ft | 352 kts | 300° |
| 2026-05-06 15:45 | 46.00628 | 6.66092 | 17821 ft | 343 kts | 301° |
| 2026-05-06 15:46 | 46.01935 | 6.63270 | 17339 ft | 336 kts | 301° |
| 2026-05-06 15:46 | 46.03218 | 6.60495 | 16861 ft | 329 kts | 301° |
| 2026-05-06 15:46 | 46.04472 | 6.57780 | 16389 ft | 322 kts | 301° |
| 2026-05-06 15:46 | 46.05710 | 6.55128 | 15932 ft | 316 kts | 301° |
| 2026-05-06 15:47 | 46.06934 | 6.52534 | 15478 ft | 311 kts | 301° |
| 2026-05-06 15:47 | 46.08138 | 6.49987 | 14936 ft | 305 kts | 301° |
| 2026-05-06 15:47 | 46.09327 | 6.47471 | 14362 ft | 303 kts | 301° |
| 2026-05-06 15:47 | 46.10511 | 6.44964 | 13813 ft | 302 kts | 302° |
| 2026-05-06 15:48 | 46.11688 | 6.42470 | 13196 ft | 299 kts | 301° |
| 2026-05-06 15:48 | 46.12850 | 6.40007 | 12585 ft | 297 kts | 301° |
| 2026-05-06 15:48 | 46.14010 | 6.37546 | 11994 ft | 294 kts | 301° |
| 2026-05-06 15:48 | 46.15152 | 6.35120 | 11408 ft | 292 kts | 301° |
| 2026-05-06 15:49 | 46.16347 | 6.32761 | 10825 ft | 291 kts | 307° |
| 2026-05-06 15:49 | 46.17756 | 6.30684 | 10262 ft | 291 kts | 318° |
| 2026-05-06 15:49 | 46.19508 | 6.29205 | 9698 ft | 293 kts | 337° |
| 2026-05-06 15:49 | 46.21515 | 6.28751 | 9084 ft | 295 kts | 1° |
| 2026-05-06 15:50 | 46.23496 | 6.29457 | 8484 ft | 296 kts | 28° |
| 2026-05-06 15:50 | 46.25012 | 6.31401 | 7898 ft | 293 kts | 50° |
| 2026-05-06 15:50 | 46.26233 | 6.33671 | 7470 ft | 283 kts | 53° |
| 2026-05-06 15:50 | 46.27408 | 6.35862 | 7081 ft | 269 kts | 51° |
| 2026-05-06 15:51 | 46.28567 | 6.37927 | 6690 ft | 258 kts | 50° |
| 2026-05-06 15:51 | 46.29708 | 6.39862 | 6304 ft | 249 kts | 48° |
| 2026-05-06 15:51 | 46.30862 | 6.41650 | 6038 ft | 236 kts | 43° |
| 2026-05-06 15:51 | 46.32158 | 6.42985 | 6027 ft | 226 kts | 25° |
| 2026-05-06 15:52 | 46.33667 | 6.43557 | 5882 ft | 223 kts | 359° |
| 2026-05-06 15:52 | 46.35139 | 6.43037 | 5630 ft | 218 kts | 327° |
| 2026-05-06 15:52 | 46.36115 | 6.41462 | 5373 ft | 211 kts | 288° |
| 2026-05-06 15:52 | 46.36388 | 6.39392 | 5122 ft | 209 kts | 272° |
| 2026-05-06 15:53 | 46.36482 | 6.37307 | 4873 ft | 208 kts | 271° |
| 2026-05-06 15:53 | 46.36563 | 6.35220 | 4633 ft | 206 kts | 271° |
| 2026-05-06 15:53 | 46.36657 | 6.33152 | 4360 ft | 206 kts | 272° |
| 2026-05-06 15:53 | 46.36655 | 6.31092 | 4088 ft | 204 kts | 253° |
| 2026-05-06 15:54 | 46.36091 | 6.29215 | 4004 ft | 203 kts | 237° |
| 2026-05-06 15:54 | 46.35222 | 6.27635 | 3984 ft | 194 kts | 227° |
| 2026-05-06 15:54 | 46.34322 | 6.26293 | 4010 ft | 181 kts | 225° |
| 2026-05-06 15:54 | 46.33445 | 6.25026 | 4021 ft | 175 kts | 225° |
| 2026-05-06 15:55 | 46.32581 | 6.23776 | 3991 ft | 176 kts | 225° |
| 2026-05-06 15:55 | 46.31709 | 6.22519 | 3921 ft | 175 kts | 225° |
| 2026-05-06 15:55 | 46.30896 | 6.21314 | 3597 ft | 165 kts | 225° |
| 2026-05-06 15:55 | 46.30122 | 6.20174 | 3241 ft | 153 kts | 225° |
| 2026-05-06 15:56 | 46.29402 | 6.19121 | 2889 ft | 141 kts | 225° |
| 2026-05-06 15:56 | 46.28733 | 6.18140 | 2551 ft | 134 kts | 225° |
| 2026-05-06 15:56 | 46.28100 | 6.17207 | 2274 ft | 124 kts | 223° |
| 2026-05-06 15:56 | 46.27522 | 6.16359 | 2086 ft | 118 kts | 224° |
| 2026-05-06 15:57 | 46.27151 | 6.15813 | 1989 ft | 117 kts | 224° |
| 2026-05-06 15:57 | 46.26576 | 6.14967 | 1838 ft | 118 kts | 225° |
| 2026-05-06 15:57 | 46.26011 | 6.14123 | 1669 ft | 115 kts | 226° |
| 2026-05-06 15:57 | 46.25442 | 6.13295 | 1536 ft | 117 kts | 225° |
| 2026-05-06 15:58 | 46.24875 | 6.12459 | 1404 ft | 115 kts | 225° |
| 2026-05-06 15:58 | 46.24350 | 6.11691 | 1375 ft | 90 kts | 225° |
| 2026-05-06 15:58 | 46.24038 | 6.11234 | 1381 ft | 39 kts | 225° |
| 2026-05-06 15:58 | 46.23877 | 6.11071 | 1379 ft | 27 kts | 183° |
| 2026-05-06 15:59 | 46.23765 | 6.11085 | 1384 ft | 10 kts | 174° |
| 2026-05-06 15:59 | 46.23714 | 6.11082 | 1389 ft | 6 kts | 202° |
| 2026-05-06 15:59 | 46.23671 | 6.11027 | 1401 ft | 10 kts | 225° |
| 2026-05-06 15:59 | 46.23610 | 6.10939 | 1400 ft | 13 kts | 226° |
| 2026-05-06 16:00 | 46.23541 | 6.10839 | 1396 ft | 15 kts | 224° |
| 2026-05-06 16:00 | 46.23464 | 6.10727 | 1394 ft | 15 kts | 228° |
| 2026-05-06 16:00 | 46.23383 | 6.10616 | 1401 ft | 17 kts | 221° |
| 2026-05-06 16:00 | 46.23308 | 6.10516 | 1400 ft | 8 kts | 195° |
| 2026-05-06 16:01 | 46.23267 | 6.10542 | 1396 ft | 8 kts | 135° |
| 2026-05-06 16:01 | 46.23221 | 6.10610 | 1396 ft | 10 kts | 136° |
| 2026-05-06 16:01 | 46.23162 | 6.10657 | 1402 ft | 6 kts | 168° |
| 2026-05-06 16:01 | 46.23141 | 6.10684 | 1396 ft | 5 kts | 135° |
| 2026-05-06 16:02 | 46.23129 | 6.10701 | 1399 ft | 0 kts | 135° |